sensor_id;sensor_type;location;lat;lon;timestamp;P1;durP1;ratioP1;P2;durP2;ratioP2
50900;SDS011;36879;51.416;6.678;2023-04-24T00:00:48;2.83;;;1.45;;
50900;SDS011;36879;51.416;6.678;2023-04-24T00:03:15;4.32;;;2.10;;
50900;SDS011;36879;51.416;6.678;2023-04-24T00:05:41;6.30;;;1.92;;
50900;SDS011;36879;51.416;6.678;2023-04-24T00:08:07;6.28;;;1.70;;
50900;SDS011;36879;51.416;6.678;2023-04-24T00:10:33;5.40;;;2.63;;
50900;SDS011;36879;51.416;6.678;2023-04-24T00:13:00;7.05;;;1.95;;
50900;SDS011;36879;51.416;6.678;2023-04-24T00:15:26;4.80;;;2.00;;
50900;SDS011;36879;51.416;6.678;2023-04-24T00:17:52;6.18;;;2.30;;
50900;SDS011;36879;51.416;6.678;2023-04-24T00:20:18;2.58;;;1.60;;
50900;SDS011;36879;51.416;6.678;2023-04-24T00:22:44;5.25;;;1.63;;
50900;SDS011;36879;51.416;6.678;2023-04-24T00:25:10;6.95;;;2.60;;
50900;SDS011;36879;51.416;6.678;2023-04-24T00:27:36;3.88;;;2.10;;
50900;SDS011;36879;51.416;6.678;2023-04-24T00:30:03;4.65;;;2.22;;
50900;SDS011;36879;51.416;6.678;2023-04-24T00:32:30;7.88;;;2.92;;
50900;SDS011;36879;51.416;6.678;2023-04-24T00:34:56;3.17;;;1.77;;
50900;SDS011;36879;51.416;6.678;2023-04-24T00:37:22;3.13;;;2.20;;
50900;SDS011;36879;51.416;6.678;2023-04-24T00:39:47;4.03;;;2.58;;
50900;SDS011;36879;51.416;6.678;2023-04-24T00:42:13;5.70;;;2.70;;
50900;SDS011;36879;51.416;6.678;2023-04-24T00:44:40;5.72;;;3.03;;
50900;SDS011;36879;51.416;6.678;2023-04-24T00:47:06;4.88;;;2.65;;
50900;SDS011;36879;51.416;6.678;2023-04-24T00:49:32;6.00;;;3.58;;
50900;SDS011;36879;51.416;6.678;2023-04-24T00:51:58;8.10;;;3.63;;
50900;SDS011;36879;51.416;6.678;2023-04-24T00:54:24;6.70;;;3.13;;
50900;SDS011;36879;51.416;6.678;2023-04-24T00:56:51;7.85;;;3.83;;
50900;SDS011;36879;51.416;6.678;2023-04-24T00:59:17;7.25;;;4.07;;
50900;SDS011;36879;51.416;6.678;2023-04-24T01:01:44;7.03;;;3.67;;
50900;SDS011;36879;51.416;6.678;2023-04-24T01:04:11;5.47;;;3.80;;
50900;SDS011;36879;51.416;6.678;2023-04-24T01:06:38;9.40;;;4.45;;
50900;SDS011;36879;51.416;6.678;2023-04-24T01:09:04;8.32;;;4.50;;
50900;SDS011;36879;51.416;6.678;2023-04-24T01:11:30;8.13;;;4.30;;
50900;SDS011;36879;51.416;6.678;2023-04-24T01:13:57;7.93;;;4.22;;
50900;SDS011;36879;51.416;6.678;2023-04-24T01:16:23;11.23;;;4.72;;
50900;SDS011;36879;51.416;6.678;2023-04-24T01:18:49;8.73;;;5.25;;
50900;SDS011;36879;51.416;6.678;2023-04-24T01:21:16;9.05;;;5.82;;
50900;SDS011;36879;51.416;6.678;2023-04-24T01:23:43;10.63;;;5.68;;
50900;SDS011;36879;51.416;6.678;2023-04-24T01:26:10;8.25;;;5.47;;
50900;SDS011;36879;51.416;6.678;2023-04-24T01:28:36;10.38;;;5.68;;
50900;SDS011;36879;51.416;6.678;2023-04-24T01:31:02;10.88;;;6.03;;
50900;SDS011;36879;51.416;6.678;2023-04-24T01:33:28;10.32;;;5.15;;
50900;SDS011;36879;51.416;6.678;2023-04-24T01:35:54;10.45;;;5.57;;
50900;SDS011;36879;51.416;6.678;2023-04-24T01:38:20;9.75;;;5.25;;
50900;SDS011;36879;51.416;6.678;2023-04-24T01:40:47;10.55;;;5.75;;
50900;SDS011;36879;51.416;6.678;2023-04-24T01:43:13;7.88;;;5.63;;
50900;SDS011;36879;51.416;6.678;2023-04-24T01:45:39;7.22;;;5.32;;
50900;SDS011;36879;51.416;6.678;2023-04-24T01:48:05;10.95;;;5.55;;
50900;SDS011;36879;51.416;6.678;2023-04-24T01:50:31;8.05;;;5.18;;
50900;SDS011;36879;51.416;6.678;2023-04-24T01:52:57;9.82;;;5.45;;
50900;SDS011;36879;51.416;6.678;2023-04-24T01:55:23;9.50;;;5.45;;
50900;SDS011;36879;51.416;6.678;2023-04-24T01:57:49;9.48;;;5.70;;
50900;SDS011;36879;51.416;6.678;2023-04-24T02:00:17;7.90;;;5.35;;
50900;SDS011;36879;51.416;6.678;2023-04-24T02:02:43;12.20;;;5.72;;
50900;SDS011;36879;51.416;6.678;2023-04-24T02:05:10;14.65;;;5.70;;
50900;SDS011;36879;51.416;6.678;2023-04-24T02:07:36;12.40;;;7.25;;
50900;SDS011;36879;51.416;6.678;2023-04-24T02:10:02;9.77;;;6.05;;
50900;SDS011;36879;51.416;6.678;2023-04-24T02:12:29;10.77;;;6.03;;
50900;SDS011;36879;51.416;6.678;2023-04-24T02:14:55;15.00;;;7.28;;
50900;SDS011;36879;51.416;6.678;2023-04-24T02:17:21;11.73;;;6.70;;
50900;SDS011;36879;51.416;6.678;2023-04-24T02:19:47;10.90;;;6.43;;
50900;SDS011;36879;51.416;6.678;2023-04-24T02:22:13;15.15;;;7.30;;
50900;SDS011;36879;51.416;6.678;2023-04-24T02:24:39;12.90;;;7.03;;
50900;SDS011;36879;51.416;6.678;2023-04-24T02:27:05;13.95;;;7.38;;
50900;SDS011;36879;51.416;6.678;2023-04-24T02:29:32;14.18;;;9.52;;
50900;SDS011;36879;51.416;6.678;2023-04-24T02:31:58;16.65;;;9.05;;
50900;SDS011;36879;51.416;6.678;2023-04-24T02:34:24;13.82;;;8.85;;
50900;SDS011;36879;51.416;6.678;2023-04-24T02:36:50;14.68;;;8.93;;
50900;SDS011;36879;51.416;6.678;2023-04-24T02:39:16;14.55;;;8.68;;
50900;SDS011;36879;51.416;6.678;2023-04-24T02:41:45;20.67;;;10.25;;
50900;SDS011;36879;51.416;6.678;2023-04-24T02:44:11;15.13;;;9.55;;
50900;SDS011;36879;51.416;6.678;2023-04-24T02:46:37;16.08;;;8.85;;
50900;SDS011;36879;51.416;6.678;2023-04-24T02:49:03;17.58;;;9.60;;
50900;SDS011;36879;51.416;6.678;2023-04-24T02:51:29;16.45;;;9.50;;
50900;SDS011;36879;51.416;6.678;2023-04-24T02:53:55;18.42;;;10.82;;
50900;SDS011;36879;51.416;6.678;2023-04-24T02:56:21;19.25;;;10.15;;
50900;SDS011;36879;51.416;6.678;2023-04-24T02:58:47;21.15;;;10.32;;
50900;SDS011;36879;51.416;6.678;2023-04-24T03:01:13;18.00;;;10.38;;
50900;SDS011;36879;51.416;6.678;2023-04-24T03:03:40;22.13;;;11.98;;
50900;SDS011;36879;51.416;6.678;2023-04-24T03:06:06;17.30;;;10.35;;
50900;SDS011;36879;51.416;6.678;2023-04-24T03:08:33;19.50;;;11.00;;
50900;SDS011;36879;51.416;6.678;2023-04-24T03:10:59;20.83;;;11.10;;
50900;SDS011;36879;51.416;6.678;2023-04-24T03:13:25;18.67;;;10.05;;
50900;SDS011;36879;51.416;6.678;2023-04-24T03:15:51;18.00;;;10.82;;
50900;SDS011;36879;51.416;6.678;2023-04-24T03:18:17;14.27;;;10.60;;
50900;SDS011;36879;51.416;6.678;2023-04-24T03:20:46;19.42;;;11.55;;
50900;SDS011;36879;51.416;6.678;2023-04-24T03:23:13;18.60;;;10.93;;
50900;SDS011;36879;51.416;6.678;2023-04-24T03:25:39;15.70;;;9.95;;
50900;SDS011;36879;51.416;6.678;2023-04-24T03:28:05;22.50;;;11.20;;
50900;SDS011;36879;51.416;6.678;2023-04-24T03:30:31;17.05;;;11.20;;
50900;SDS011;36879;51.416;6.678;2023-04-24T03:32:57;15.85;;;10.90;;
50900;SDS011;36879;51.416;6.678;2023-04-24T03:35:23;19.48;;;10.95;;
50900;SDS011;36879;51.416;6.678;2023-04-24T03:37:49;21.88;;;11.10;;
50900;SDS011;36879;51.416;6.678;2023-04-24T03:40:15;21.05;;;10.40;;
50900;SDS011;36879;51.416;6.678;2023-04-24T03:42:41;18.80;;;11.73;;
50900;SDS011;36879;51.416;6.678;2023-04-24T03:45:08;17.95;;;10.43;;
50900;SDS011;36879;51.416;6.678;2023-04-24T03:47:34;16.75;;;10.02;;
50900;SDS011;36879;51.416;6.678;2023-04-24T03:50:00;19.15;;;10.07;;
50900;SDS011;36879;51.416;6.678;2023-04-24T03:52:26;15.48;;;9.65;;
50900;SDS011;36879;51.416;6.678;2023-04-24T03:54:52;17.52;;;9.52;;
50900;SDS011;36879;51.416;6.678;2023-04-24T03:57:18;19.88;;;10.00;;
50900;SDS011;36879;51.416;6.678;2023-04-24T03:59:44;16.52;;;10.40;;
50900;SDS011;36879;51.416;6.678;2023-04-24T04:02:10;15.63;;;9.32;;
50900;SDS011;36879;51.416;6.678;2023-04-24T04:04:36;16.85;;;10.18;;
50900;SDS011;36879;51.416;6.678;2023-04-24T04:07:02;17.65;;;11.13;;
50900;SDS011;36879;51.416;6.678;2023-04-24T04:09:28;17.40;;;8.98;;
50900;SDS011;36879;51.416;6.678;2023-04-24T04:11:54;17.75;;;9.77;;
50900;SDS011;36879;51.416;6.678;2023-04-24T04:14:21;17.95;;;9.82;;
50900;SDS011;36879;51.416;6.678;2023-04-24T04:16:47;17.83;;;10.43;;
50900;SDS011;36879;51.416;6.678;2023-04-24T04:19:13;16.08;;;9.82;;
50900;SDS011;36879;51.416;6.678;2023-04-24T04:21:39;16.98;;;10.40;;
50900;SDS011;36879;51.416;6.678;2023-04-24T04:24:05;15.02;;;9.63;;
50900;SDS011;36879;51.416;6.678;2023-04-24T04:26:32;17.20;;;9.43;;
50900;SDS011;36879;51.416;6.678;2023-04-24T04:28:58;15.10;;;9.55;;
50900;SDS011;36879;51.416;6.678;2023-04-24T04:31:25;18.42;;;9.85;;
50900;SDS011;36879;51.416;6.678;2023-04-24T04:33:51;16.23;;;8.73;;
50900;SDS011;36879;51.416;6.678;2023-04-24T04:36:17;12.43;;;8.80;;
50900;SDS011;36879;51.416;6.678;2023-04-24T04:38:43;19.80;;;9.35;;
50900;SDS011;36879;51.416;6.678;2023-04-24T04:41:09;15.57;;;8.70;;
50900;SDS011;36879;51.416;6.678;2023-04-24T04:43:35;14.07;;;8.57;;
50900;SDS011;36879;51.416;6.678;2023-04-24T04:46:03;15.90;;;8.90;;
50900;SDS011;36879;51.416;6.678;2023-04-24T04:48:29;13.80;;;8.00;;
50900;SDS011;36879;51.416;6.678;2023-04-24T04:50:56;16.73;;;7.70;;
50900;SDS011;36879;51.416;6.678;2023-04-24T04:53:22;12.80;;;7.90;;
50900;SDS011;36879;51.416;6.678;2023-04-24T04:55:48;10.73;;;7.78;;
50900;SDS011;36879;51.416;6.678;2023-04-24T04:58:14;13.82;;;8.40;;
50900;SDS011;36879;51.416;6.678;2023-04-24T05:00:40;11.27;;;7.13;;
50900;SDS011;36879;51.416;6.678;2023-04-24T05:03:07;13.75;;;8.60;;
50900;SDS011;36879;51.416;6.678;2023-04-24T05:05:33;14.25;;;7.32;;
50900;SDS011;36879;51.416;6.678;2023-04-24T05:07:59;11.68;;;7.75;;
50900;SDS011;36879;51.416;6.678;2023-04-24T05:10:25;11.57;;;8.55;;
50900;SDS011;36879;51.416;6.678;2023-04-24T05:12:51;11.77;;;7.43;;
50900;SDS011;36879;51.416;6.678;2023-04-24T05:15:17;11.68;;;7.70;;
50900;SDS011;36879;51.416;6.678;2023-04-24T05:17:43;13.52;;;8.77;;
50900;SDS011;36879;51.416;6.678;2023-04-24T05:20:09;18.60;;;9.88;;
50900;SDS011;36879;51.416;6.678;2023-04-24T05:22:35;16.77;;;11.30;;
50900;SDS011;36879;51.416;6.678;2023-04-24T05:25:01;14.70;;;9.90;;
50900;SDS011;36879;51.416;6.678;2023-04-24T05:27:27;15.43;;;10.55;;
50900;SDS011;36879;51.416;6.678;2023-04-24T05:29:53;17.67;;;10.30;;
50900;SDS011;36879;51.416;6.678;2023-04-24T05:32:19;17.73;;;12.02;;
50900;SDS011;36879;51.416;6.678;2023-04-24T05:34:45;17.50;;;11.05;;
50900;SDS011;36879;51.416;6.678;2023-04-24T05:37:12;15.65;;;10.63;;
50900;SDS011;36879;51.416;6.678;2023-04-24T05:39:38;17.50;;;11.23;;
50900;SDS011;36879;51.416;6.678;2023-04-24T05:42:04;16.90;;;10.18;;
50900;SDS011;36879;51.416;6.678;2023-04-24T05:44:30;18.08;;;10.77;;
50900;SDS011;36879;51.416;6.678;2023-04-24T05:46:56;18.30;;;10.82;;
50900;SDS011;36879;51.416;6.678;2023-04-24T05:49:22;14.32;;;9.65;;
50900;SDS011;36879;51.416;6.678;2023-04-24T05:51:48;14.52;;;9.40;;
50900;SDS011;36879;51.416;6.678;2023-04-24T05:54:14;18.85;;;10.48;;
50900;SDS011;36879;51.416;6.678;2023-04-24T05:56:40;16.52;;;10.07;;
50900;SDS011;36879;51.416;6.678;2023-04-24T05:59:06;15.90;;;10.43;;
50900;SDS011;36879;51.416;6.678;2023-04-24T06:01:33;12.85;;;8.82;;
50900;SDS011;36879;51.416;6.678;2023-04-24T06:03:59;17.60;;;10.82;;
50900;SDS011;36879;51.416;6.678;2023-04-24T06:06:25;17.23;;;11.57;;
50900;SDS011;36879;51.416;6.678;2023-04-24T06:08:52;19.10;;;11.23;;
50900;SDS011;36879;51.416;6.678;2023-04-24T06:11:18;16.73;;;10.50;;
50900;SDS011;36879;51.416;6.678;2023-04-24T06:13:44;18.00;;;11.15;;
50900;SDS011;36879;51.416;6.678;2023-04-24T06:16:10;23.67;;;11.95;;
50900;SDS011;36879;51.416;6.678;2023-04-24T06:18:36;20.98;;;12.48;;
50900;SDS011;36879;51.416;6.678;2023-04-24T06:21:02;14.60;;;10.38;;
50900;SDS011;36879;51.416;6.678;2023-04-24T06:23:28;19.58;;;10.95;;
50900;SDS011;36879;51.416;6.678;2023-04-24T06:25:57;18.58;;;10.95;;
50900;SDS011;36879;51.416;6.678;2023-04-24T06:28:23;16.55;;;9.82;;
50900;SDS011;36879;51.416;6.678;2023-04-24T06:30:49;14.32;;;9.05;;
50900;SDS011;36879;51.416;6.678;2023-04-24T06:33:15;13.85;;;8.93;;
50900;SDS011;36879;51.416;6.678;2023-04-24T06:35:41;17.42;;;8.85;;
50900;SDS011;36879;51.416;6.678;2023-04-24T06:38:07;13.85;;;9.07;;
50900;SDS011;36879;51.416;6.678;2023-04-24T06:40:33;15.00;;;8.52;;
50900;SDS011;36879;51.416;6.678;2023-04-24T06:42:59;10.77;;;8.18;;
50900;SDS011;36879;51.416;6.678;2023-04-24T06:45:27;14.63;;;8.85;;
50900;SDS011;36879;51.416;6.678;2023-04-24T06:47:53;14.70;;;8.23;;
50900;SDS011;36879;51.416;6.678;2023-04-24T06:50:19;12.48;;;7.22;;
50900;SDS011;36879;51.416;6.678;2023-04-24T06:52:45;13.55;;;7.20;;
50900;SDS011;36879;51.416;6.678;2023-04-24T06:55:11;10.07;;;6.95;;
50900;SDS011;36879;51.416;6.678;2023-04-24T06:57:37;12.35;;;6.90;;
50900;SDS011;36879;51.416;6.678;2023-04-24T07:00:04;10.05;;;6.45;;
50900;SDS011;36879;51.416;6.678;2023-04-24T07:02:31;10.52;;;6.53;;
50900;SDS011;36879;51.416;6.678;2023-04-24T07:04:57;13.18;;;6.30;;
50900;SDS011;36879;51.416;6.678;2023-04-24T07:07:23;9.75;;;4.90;;
50900;SDS011;36879;51.416;6.678;2023-04-24T07:09:49;10.75;;;5.25;;
50900;SDS011;36879;51.416;6.678;2023-04-24T07:12:15;12.20;;;4.43;;
50900;SDS011;36879;51.416;6.678;2023-04-24T07:14:42;6.15;;;3.83;;
50900;SDS011;36879;51.416;6.678;2023-04-24T07:17:08;6.10;;;3.45;;
50900;SDS011;36879;51.416;6.678;2023-04-24T07:19:34;21.95;;;12.32;;
50900;SDS011;36879;51.416;6.678;2023-04-24T07:22:00;5.95;;;3.35;;
50900;SDS011;36879;51.416;6.678;2023-04-24T07:24:28;6.13;;;4.20;;
50900;SDS011;36879;51.416;6.678;2023-04-24T07:26:54;6.65;;;3.55;;
50900;SDS011;36879;51.416;6.678;2023-04-24T07:29:20;7.10;;;4.25;;
50900;SDS011;36879;51.416;6.678;2023-04-24T07:31:46;5.45;;;2.45;;
50900;SDS011;36879;51.416;6.678;2023-04-24T07:34:12;5.78;;;3.08;;
50900;SDS011;36879;51.416;6.678;2023-04-24T07:36:38;6.00;;;3.38;;
50900;SDS011;36879;51.416;6.678;2023-04-24T07:39:05;4.10;;;2.22;;
50900;SDS011;36879;51.416;6.678;2023-04-24T07:41:31;10.18;;;5.93;;
50900;SDS011;36879;51.416;6.678;2023-04-24T07:43:57;7.07;;;3.63;;
50900;SDS011;36879;51.416;6.678;2023-04-24T07:46:24;4.03;;;2.05;;
50900;SDS011;36879;51.416;6.678;2023-04-24T07:48:50;3.95;;;2.15;;
50900;SDS011;36879;51.416;6.678;2023-04-24T07:51:16;3.22;;;1.73;;
50900;SDS011;36879;51.416;6.678;2023-04-24T07:53:42;2.85;;;1.67;;
50900;SDS011;36879;51.416;6.678;2023-04-24T07:56:08;2.85;;;1.73;;
50900;SDS011;36879;51.416;6.678;2023-04-24T07:58:34;4.88;;;2.58;;
50900;SDS011;36879;51.416;6.678;2023-04-24T08:01:01;3.70;;;2.17;;
50900;SDS011;36879;51.416;6.678;2023-04-24T08:03:27;3.65;;;1.90;;
50900;SDS011;36879;51.416;6.678;2023-04-24T08:05:53;2.88;;;1.50;;
50900;SDS011;36879;51.416;6.678;2023-04-24T08:08:21;3.47;;;2.05;;
50900;SDS011;36879;51.416;6.678;2023-04-24T08:10:48;4.85;;;2.33;;
50900;SDS011;36879;51.416;6.678;2023-04-24T08:13:14;3.92;;;2.20;;
50900;SDS011;36879;51.416;6.678;2023-04-24T08:15:40;7.18;;;2.33;;
50900;SDS011;36879;51.416;6.678;2023-04-24T08:18:06;3.75;;;2.15;;
50900;SDS011;36879;51.416;6.678;2023-04-24T08:20:33;4.97;;;2.40;;
50900;SDS011;36879;51.416;6.678;2023-04-24T08:22:59;3.58;;;2.13;;
50900;SDS011;36879;51.416;6.678;2023-04-24T08:25:25;3.28;;;1.95;;
50900;SDS011;36879;51.416;6.678;2023-04-24T08:27:51;3.22;;;1.80;;
50900;SDS011;36879;51.416;6.678;2023-04-24T08:30:17;9.18;;;2.33;;
50900;SDS011;36879;51.416;6.678;2023-04-24T08:32:43;3.85;;;1.60;;
50900;SDS011;36879;51.416;6.678;2023-04-24T08:35:10;2.13;;;1.45;;
50900;SDS011;36879;51.416;6.678;2023-04-24T08:37:36;2.92;;;1.55;;
50900;SDS011;36879;51.416;6.678;2023-04-24T08:40:03;3.80;;;1.58;;
50900;SDS011;36879;51.416;6.678;2023-04-24T08:42:31;2.55;;;1.40;;
50900;SDS011;36879;51.416;6.678;2023-04-24T08:45:00;3.72;;;1.77;;
50900;SDS011;36879;51.416;6.678;2023-04-24T08:47:27;2.10;;;1.27;;
50900;SDS011;36879;51.416;6.678;2023-04-24T08:49:54;4.70;;;1.58;;
50900;SDS011;36879;51.416;6.678;2023-04-24T08:52:21;5.50;;;2.10;;
50900;SDS011;36879;51.416;6.678;2023-04-24T08:54:47;7.30;;;4.05;;
50900;SDS011;36879;51.416;6.678;2023-04-24T08:57:14;9.93;;;5.25;;
50900;SDS011;36879;51.416;6.678;2023-04-24T08:59:40;16.50;;;8.25;;
50900;SDS011;36879;51.416;6.678;2023-04-24T09:02:08;19.15;;;9.32;;
50900;SDS011;36879;51.416;6.678;2023-04-24T09:04:35;17.52;;;10.43;;
50900;SDS011;36879;51.416;6.678;2023-04-24T09:07:02;20.83;;;11.20;;
50900;SDS011;36879;51.416;6.678;2023-04-24T09:09:30;18.52;;;10.70;;
50900;SDS011;36879;51.416;6.678;2023-04-24T09:11:56;17.95;;;10.68;;
50900;SDS011;36879;51.416;6.678;2023-04-24T09:14:23;16.48;;;10.77;;
50900;SDS011;36879;51.416;6.678;2023-04-24T09:16:50;18.98;;;11.02;;
50900;SDS011;36879;51.416;6.678;2023-04-24T09:19:16;18.02;;;11.32;;
50900;SDS011;36879;51.416;6.678;2023-04-24T09:21:42;18.17;;;10.40;;
50900;SDS011;36879;51.416;6.678;2023-04-24T09:24:14;18.63;;;10.95;;
50900;SDS011;36879;51.416;6.678;2023-04-24T09:26:42;18.25;;;11.35;;
50900;SDS011;36879;51.416;6.678;2023-04-24T09:29:13;20.90;;;11.00;;
50900;SDS011;36879;51.416;6.678;2023-04-24T09:31:40;21.95;;;12.70;;
50900;SDS011;36879;51.416;6.678;2023-04-24T09:34:06;21.13;;;12.75;;
50900;SDS011;36879;51.416;6.678;2023-04-24T09:36:33;19.48;;;12.10;;
50900;SDS011;36879;51.416;6.678;2023-04-24T09:39:02;24.30;;;12.75;;
50900;SDS011;36879;51.416;6.678;2023-04-24T09:41:29;25.20;;;13.60;;
50900;SDS011;36879;51.416;6.678;2023-04-24T09:43:55;23.70;;;13.23;;
50900;SDS011;36879;51.416;6.678;2023-04-24T09:46:28;26.50;;;15.52;;
50900;SDS011;36879;51.416;6.678;2023-04-24T09:48:54;25.98;;;14.85;;
50900;SDS011;36879;51.416;6.678;2023-04-24T09:51:32;28.92;;;13.55;;
50900;SDS011;36879;51.416;6.678;2023-04-24T09:53:58;29.52;;;13.60;;
50900;SDS011;36879;51.416;6.678;2023-04-24T09:56:25;24.42;;;14.32;;
50900;SDS011;36879;51.416;6.678;2023-04-24T09:58:51;23.95;;;12.13;;
50900;SDS011;36879;51.416;6.678;2023-04-24T10:01:29;21.38;;;12.27;;
50900;SDS011;36879;51.416;6.678;2023-04-24T10:03:55;27.27;;;13.95;;
50900;SDS011;36879;51.416;6.678;2023-04-24T10:06:21;28.80;;;13.18;;
50900;SDS011;36879;51.416;6.678;2023-04-24T10:08:47;22.65;;;11.63;;
50900;SDS011;36879;51.416;6.678;2023-04-24T10:11:13;23.05;;;10.48;;
50900;SDS011;36879;51.416;6.678;2023-04-24T10:13:40;28.30;;;11.60;;
50900;SDS011;36879;51.416;6.678;2023-04-24T10:16:07;30.88;;;13.23;;
50900;SDS011;36879;51.416;6.678;2023-04-24T10:18:33;26.13;;;12.82;;
50900;SDS011;36879;51.416;6.678;2023-04-24T10:20:59;26.85;;;11.38;;
50900;SDS011;36879;51.416;6.678;2023-04-24T10:23:25;22.75;;;11.52;;
50900;SDS011;36879;51.416;6.678;2023-04-24T10:25:51;31.17;;;11.60;;
50900;SDS011;36879;51.416;6.678;2023-04-24T10:28:18;21.48;;;9.93;;
50900;SDS011;36879;51.416;6.678;2023-04-24T10:30:48;21.25;;;10.55;;
50900;SDS011;36879;51.416;6.678;2023-04-24T10:33:14;25.60;;;11.15;;
50900;SDS011;36879;51.416;6.678;2023-04-24T10:35:44;21.17;;;9.48;;
50900;SDS011;36879;51.416;6.678;2023-04-24T10:38:13;18.00;;;10.05;;
50900;SDS011;36879;51.416;6.678;2023-04-24T10:40:39;30.42;;;10.50;;
50900;SDS011;36879;51.416;6.678;2023-04-24T10:43:06;25.42;;;10.82;;
50900;SDS011;36879;51.416;6.678;2023-04-24T10:45:36;23.20;;;11.20;;
50900;SDS011;36879;51.416;6.678;2023-04-24T10:48:03;20.70;;;9.07;;
50900;SDS011;36879;51.416;6.678;2023-04-24T10:53:14;27.77;;;11.05;;
50900;SDS011;36879;51.416;6.678;2023-04-24T10:55:42;25.67;;;9.23;;
50900;SDS011;36879;51.416;6.678;2023-04-24T10:58:08;22.77;;;10.15;;
50900;SDS011;36879;51.416;6.678;2023-04-24T11:00:36;26.77;;;11.57;;
50900;SDS011;36879;51.416;6.678;2023-04-24T11:03:04;24.10;;;11.85;;
50900;SDS011;36879;51.416;6.678;2023-04-24T11:08:16;20.35;;;9.93;;
50900;SDS011;36879;51.416;6.678;2023-04-24T11:10:47;16.38;;;10.05;;
50900;SDS011;36879;51.416;6.678;2023-04-24T11:13:22;15.55;;;7.57;;
50900;SDS011;36879;51.416;6.678;2023-04-24T11:18:39;19.85;;;5.22;;
50900;SDS011;36879;51.416;6.678;2023-04-24T11:21:12;12.93;;;5.57;;
50900;SDS011;36879;51.416;6.678;2023-04-24T11:23:39;12.73;;;5.00;;
50900;SDS011;36879;51.416;6.678;2023-04-24T11:26:27;12.27;;;5.40;;
50900;SDS011;36879;51.416;6.678;2023-04-24T11:29:05;11.45;;;4.32;;
50900;SDS011;36879;51.416;6.678;2023-04-24T11:31:38;12.97;;;3.90;;
50900;SDS011;36879;51.416;6.678;2023-04-24T11:34:14;13.38;;;4.07;;
50900;SDS011;36879;51.416;6.678;2023-04-24T11:36:42;14.48;;;4.60;;
50900;SDS011;36879;51.416;6.678;2023-04-24T11:39:08;16.52;;;5.03;;
50900;SDS011;36879;51.416;6.678;2023-04-24T11:41:36;12.93;;;4.75;;
50900;SDS011;36879;51.416;6.678;2023-04-24T11:44:02;14.70;;;5.57;;
50900;SDS011;36879;51.416;6.678;2023-04-24T11:46:29;10.95;;;4.43;;
50900;SDS011;36879;51.416;6.678;2023-04-24T11:48:56;12.43;;;5.13;;
50900;SDS011;36879;51.416;6.678;2023-04-24T11:51:23;9.40;;;3.83;;
50900;SDS011;36879;51.416;6.678;2023-04-24T11:53:50;9.57;;;4.00;;
50900;SDS011;36879;51.416;6.678;2023-04-24T11:56:21;9.50;;;3.80;;
50900;SDS011;36879;51.416;6.678;2023-04-24T11:58:47;8.05;;;3.47;;
50900;SDS011;36879;51.416;6.678;2023-04-24T12:01:13;8.30;;;4.43;;
50900;SDS011;36879;51.416;6.678;2023-04-24T12:03:40;13.23;;;3.75;;
50900;SDS011;36879;51.416;6.678;2023-04-24T12:06:09;7.10;;;3.47;;
50900;SDS011;36879;51.416;6.678;2023-04-24T12:08:36;7.85;;;2.70;;
50900;SDS011;36879;51.416;6.678;2023-04-24T12:11:02;6.03;;;2.30;;
50900;SDS011;36879;51.416;6.678;2023-04-24T12:13:28;5.90;;;2.78;;
50900;SDS011;36879;51.416;6.678;2023-04-24T12:15:56;5.68;;;2.53;;
50900;SDS011;36879;51.416;6.678;2023-04-24T12:18:22;4.82;;;2.13;;
50900;SDS011;36879;51.416;6.678;2023-04-24T12:20:49;5.32;;;2.42;;
50900;SDS011;36879;51.416;6.678;2023-04-24T12:23:15;3.70;;;1.90;;
50900;SDS011;36879;51.416;6.678;2023-04-24T12:25:44;9.88;;;2.95;;
50900;SDS011;36879;51.416;6.678;2023-04-24T12:28:11;5.00;;;2.05;;
50900;SDS011;36879;51.416;6.678;2023-04-24T12:33:06;7.28;;;2.67;;
50900;SDS011;36879;51.416;6.678;2023-04-24T12:35:33;6.10;;;2.72;;
50900;SDS011;36879;51.416;6.678;2023-04-24T12:38:10;3.88;;;1.48;;
50900;SDS011;36879;51.416;6.678;2023-04-24T12:40:38;5.75;;;1.52;;
50900;SDS011;36879;51.416;6.678;2023-04-24T12:43:14;5.03;;;2.15;;
50900;SDS011;36879;51.416;6.678;2023-04-24T12:45:40;5.70;;;1.85;;
50900;SDS011;36879;51.416;6.678;2023-04-24T12:48:06;5.40;;;1.70;;
50900;SDS011;36879;51.416;6.678;2023-04-24T12:50:32;6.15;;;1.90;;
50900;SDS011;36879;51.416;6.678;2023-04-24T12:52:58;2.63;;;1.38;;
50900;SDS011;36879;51.416;6.678;2023-04-24T12:55:24;3.78;;;1.63;;
50900;SDS011;36879;51.416;6.678;2023-04-24T12:57:50;3.85;;;1.33;;
50900;SDS011;36879;51.416;6.678;2023-04-24T13:00:17;6.28;;;1.35;;
50900;SDS011;36879;51.416;6.678;2023-04-24T13:02:43;4.45;;;1.27;;
50900;SDS011;36879;51.416;6.678;2023-04-24T13:05:10;4.20;;;1.10;;
50900;SDS011;36879;51.416;6.678;2023-04-24T13:07:36;4.05;;;1.30;;
50900;SDS011;36879;51.416;6.678;2023-04-24T13:10:02;4.55;;;1.20;;
50900;SDS011;36879;51.416;6.678;2023-04-24T13:12:28;5.03;;;1.25;;
50900;SDS011;36879;51.416;6.678;2023-04-24T13:14:54;5.25;;;1.20;;
50900;SDS011;36879;51.416;6.678;2023-04-24T13:17:21;6.20;;;1.70;;
50900;SDS011;36879;51.416;6.678;2023-04-24T13:19:48;3.35;;;1.33;;
50900;SDS011;36879;51.416;6.678;2023-04-24T13:22:15;7.00;;;2.28;;
50900;SDS011;36879;51.416;6.678;2023-04-24T13:24:42;6.03;;;1.40;;
50900;SDS011;36879;51.416;6.678;2023-04-24T13:27:08;9.00;;;1.30;;
50900;SDS011;36879;51.416;6.678;2023-04-24T13:29:34;4.03;;;1.25;;
50900;SDS011;36879;51.416;6.678;2023-04-24T13:32:00;6.20;;;1.30;;
50900;SDS011;36879;51.416;6.678;2023-04-24T13:34:26;6.30;;;1.27;;
50900;SDS011;36879;51.416;6.678;2023-04-24T13:36:53;4.60;;;1.20;;
50900;SDS011;36879;51.416;6.678;2023-04-24T13:39:19;4.28;;;1.20;;
50900;SDS011;36879;51.416;6.678;2023-04-24T13:41:45;3.88;;;1.73;;
50900;SDS011;36879;51.416;6.678;2023-04-24T13:44:13;4.97;;;1.80;;
50900;SDS011;36879;51.416;6.678;2023-04-24T13:46:39;2.60;;;1.33;;
50900;SDS011;36879;51.416;6.678;2023-04-24T13:49:05;3.55;;;1.35;;
50900;SDS011;36879;51.416;6.678;2023-04-24T13:51:32;5.13;;;1.73;;
50900;SDS011;36879;51.416;6.678;2023-04-24T13:53:58;3.45;;;1.20;;
50900;SDS011;36879;51.416;6.678;2023-04-24T13:56:24;3.15;;;1.45;;
50900;SDS011;36879;51.416;6.678;2023-04-24T13:58:51;3.75;;;1.17;;
50900;SDS011;36879;51.416;6.678;2023-04-24T14:01:19;2.92;;;0.90;;
50900;SDS011;36879;51.416;6.678;2023-04-24T14:03:49;4.63;;;1.65;;
50900;SDS011;36879;51.416;6.678;2023-04-24T14:06:15;6.22;;;1.25;;
50900;SDS011;36879;51.416;6.678;2023-04-24T14:08:41;3.85;;;0.90;;
50900;SDS011;36879;51.416;6.678;2023-04-24T14:13:50;2.80;;;1.65;;
50900;SDS011;36879;51.416;6.678;2023-04-24T14:16:16;4.50;;;1.83;;
50900;SDS011;36879;51.416;6.678;2023-04-24T14:18:42;5.00;;;1.40;;
50900;SDS011;36879;51.416;6.678;2023-04-24T14:21:08;4.65;;;1.02;;
50900;SDS011;36879;51.416;6.678;2023-04-24T14:23:34;3.13;;;0.88;;
50900;SDS011;36879;51.416;6.678;2023-04-24T14:26:00;3.17;;;0.82;;
50900;SDS011;36879;51.416;6.678;2023-04-24T14:28:26;2.95;;;1.02;;
50900;SDS011;36879;51.416;6.678;2023-04-24T14:30:52;3.90;;;1.10;;
50900;SDS011;36879;51.416;6.678;2023-04-24T14:33:18;3.17;;;1.10;;
50900;SDS011;36879;51.416;6.678;2023-04-24T14:35:44;6.63;;;1.35;;
50900;SDS011;36879;51.416;6.678;2023-04-24T14:38:11;2.13;;;0.77;;
50900;SDS011;36879;51.416;6.678;2023-04-24T14:40:37;3.25;;;1.02;;
50900;SDS011;36879;51.416;6.678;2023-04-24T14:43:03;2.58;;;1.10;;
50900;SDS011;36879;51.416;6.678;2023-04-24T14:45:29;4.32;;;1.20;;